Wetterdaten: Woche 04.02.13 - 10.02.13 (KW6)
Datum Zeit Temperatur Luftfeuchte Luftdruck Niederschlag Windrichtung Sonnenschein Solar Wind
04.02.2013 00:00 0,0 C 79 % 1017,9 hPa 0,0 l/m W-SW 0,00 h 0 W/m 39,2 km/h (6 Bft)
04.02.2013 01:00 -1,0 C 92 % 1017,9 hPa 0,0 l/m W-SW 0,00 h 0 W/m 36,3 km/h (5 Bft)
04.02.2013 02:00 -1,3 C 96 % 1017,5 hPa 0,4 l/m W-SW 0,00 h 0 W/m 34,6 km/h (5 Bft)
04.02.2013 03:00 -1,3 C 97 % 1017,2 hPa 0,2 l/m W-SW 0,00 h 0 W/m 32,9 km/h (5 Bft)
04.02.2013 04:00 -1,2 C 97 % 1017,0 hPa 0,2 l/m W-SW 0,00 h 0 W/m 27,6 km/h (4 Bft)
04.02.2013 05:00 -1,1 C 97 % 1016,6 hPa 0,2 l/m W-SW 0,00 h 0 W/m 31,4 km/h (5 Bft)
04.02.2013 06:00 -0,9 C 97 % 1016,1 hPa 0,2 l/m W-SW 0,00 h 0 W/m 33,8 km/h (5 Bft)
04.02.2013 07:00 -0,6 C 98 % 1016,0 hPa 0,4 l/m SW 0,00 h 0 W/m 31,9 km/h (5 Bft)
04.02.2013 08:00 -0,3 C 98 % 1016,4 hPa 0,6 l/m W-SW 0,00 h 12 W/m 34,1 km/h (5 Bft)
04.02.2013 09:00 0,0 C 98 % 1016,5 hPa 0,4 l/m SW 0,00 h 24 W/m 29,6 km/h (5 Bft)
04.02.2013 10:00 0,4 C 98 % 1016,6 hPa 1,4 l/m W-SW 0,00 h 57 W/m 27,8 km/h (4 Bft)
04.02.2013 11:00 0,9 C 98 % 1017,1 hPa 0,0 l/m W-SW 0,00 h 77 W/m 34,6 km/h (5 Bft)
04.02.2013 12:00 1,4 C 99 % 1017,1 hPa 0,0 l/m W-SW 0,00 h 89 W/m 35,1 km/h (5 Bft)
04.02.2013 13:00 2,0 C 98 % 1016,8 hPa 0,0 l/m W-SW 0,00 h 93 W/m 33,1 km/h (5 Bft)
04.02.2013 14:00 2,4 C 97 % 1016,2 hPa 0,0 l/m W-SW 0,00 h 52 W/m 34,9 km/h (5 Bft)
04.02.2013 15:00 2,9 C 97 % 1016,0 hPa 0,0 l/m W-SW 0,00 h 35 W/m 31,8 km/h (5 Bft)
04.02.2013 16:00 3,1 C 95 % 1016,3 hPa 0,0 l/m W-SW 0,00 h 12 W/m 29,8 km/h (5 Bft)
04.02.2013 17:00 3,3 C 95 % 1016,3 hPa 0,0 l/m W-SW 0,00 h 5 W/m 27,8 km/h (4 Bft)
04.02.2013 18:00 3,4 C 94 % 1016,3 hPa 0,0 l/m W-SW 0,00 h 0 W/m 25,3 km/h (4 Bft)
04.02.2013 19:00 3,7 C 93 % 1016,2 hPa 0,0 l/m W-SW 0,00 h 0 W/m 31,1 km/h (5 Bft)
04.02.2013 20:00 3,9 C 94 % 1016,0 hPa 0,0 l/m W-SW 0,00 h 0 W/m 31,9 km/h (5 Bft)
04.02.2013 21:00 4,1 C 94 % 1016,1 hPa 0,0 l/m W-SW 0,00 h 0 W/m 29,8 km/h (5 Bft)
04.02.2013 22:00 4,2 C 94 % 1015,7 hPa 0,0 l/m W-SW 0,00 h 0 W/m 27,8 km/h (4 Bft)
04.02.2013 23:00 4,3 C 95 % 1015,0 hPa 0,0 l/m W-SW 0,00 h 0 W/m 27,9 km/h (4 Bft)
05.02.2013 00:00 4,5 C 95 % 1014,5 hPa 0,0 l/m W-SW 0,00 h 0 W/m 22,4 km/h (4 Bft)
05.02.2013 01:00 4,7 C 94 % 1014,1 hPa 0,0 l/m SW 0,00 h 0 W/m 21,2 km/h (4 Bft)
05.02.2013 02:00 4,8 C 94 % 1013,0 hPa 0,0 l/m W-SW 0,00 h 0 W/m 25,7 km/h (4 Bft)
05.02.2013 03:00 5,2 C 92 % 1012,1 hPa 0,0 l/m W-SW 0,00 h 0 W/m 22,2 km/h (4 Bft)
05.02.2013 04:00 5,2 C 91 % 1010,8 hPa 0,0 l/m W-SW 0,00 h 0 W/m 18,0 km/h (3 Bft)
05.02.2013 05:00 5,1 C 90 % 1009,8 hPa 0,0 l/m W-SW 0,00 h 0 W/m 18,2 km/h (3 Bft)
05.02.2013 06:00 5,2 C 91 % 1008,4 hPa 0,0 l/m W-SW 0,00 h 0 W/m 21,3 km/h (4 Bft)
05.02.2013 07:00 5,0 C 92 % 1007,3 hPa 0,4 l/m W-SW 0,00 h 0 W/m 22,0 km/h (4 Bft)
05.02.2013 08:00 4,8 C 94 % 1006,8 hPa 0,8 l/m W 0,00 h 11 W/m 24,3 km/h (4 Bft)
05.02.2013 09:00 4,7 C 94 % 1006,6 hPa 0,0 l/m W 0,00 h 58 W/m 25,9 km/h (4 Bft)
05.02.2013 10:00 5,1 C 88 % 1006,5 hPa 0,0 l/m W-NW 0,50 h 262 W/m 33,0 km/h (5 Bft)
05.02.2013 11:00 5,9 C 79 % 1006,0 hPa 0,0 l/m W-SW 0,67 h 346 W/m 33,5 km/h (5 Bft)
05.02.2013 12:00 6,2 C 73 % 1005,1 hPa 0,0 l/m W 0,25 h 192 W/m 42,5 km/h (6 Bft)
05.02.2013 13:00 5,0 C 74 % 1004,4 hPa 0,0 l/m W 0,00 h 168 W/m 43,6 km/h (6 Bft)
05.02.2013 14:00 5,2 C 69 % 1002,9 hPa 0,0 l/m W-SW 0,33 h 237 W/m 38,0 km/h (5 Bft)
05.02.2013 15:00 5,3 C 71 % 1002,1 hPa 0,0 l/m W-NW 0,00 h 80 W/m 33,5 km/h (5 Bft)
05.02.2013 16:00 1,5 C 88 % 1002,1 hPa 1,2 l/m W-NW 0,00 h 10 W/m 13,7 km/h (3 Bft)
05.02.2013 17:00 0,4 C 94 % 1001,3 hPa 1,8 l/m W-NW 0,00 h 0 W/m 7,2 km/h (2 Bft)
05.02.2013 18:00 0,3 C 95 % 1000,8 hPa 1,0 l/m N 0,00 h 0 W/m 0,8 km/h (0 Bft)
05.02.2013 19:00 0,3 C 96 % 1000,2 hPa 0,2 l/m N 0,00 h 0 W/m 0,0 km/h (0 Bft)
05.02.2013 20:00 0,1 C 96 % 1000,7 hPa 0,0 l/m N 0,00 h 0 W/m 0,0 km/h (0 Bft)
05.02.2013 21:00 0,2 C 97 % 1001,1 hPa 0,0 l/m N 0,00 h 0 W/m 0,0 km/h (0 Bft)
05.02.2013 22:00 -0,0 C 97 % 1001,0 hPa 0,0 l/m N 0,00 h 0 W/m 0,0 km/h (0 Bft)
05.02.2013 23:00 -0,2 C 96 % 1000,7 hPa 0,0 l/m N 0,00 h 0 W/m 0,0 km/h (0 Bft)
06.02.2013 00:00 -0,8 C 96 % 1001,1 hPa 0,0 l/m N 0,00 h 0 W/m 0,0 km/h (0 Bft)
06.02.2013 01:00 -0,9 C 96 % 1001,1 hPa 0,0 l/m N 0,00 h 0 W/m 0,0 km/h (0 Bft)
06.02.2013 02:00 -0,7 C 97 % 1001,5 hPa 0,0 l/m W 0,00 h 0 W/m 0,0 km/h (0 Bft)
06.02.2013 03:00 -1,1 C 96 % 1001,3 hPa 0,0 l/m W 0,00 h 0 W/m 9,1 km/h (2 Bft)
06.02.2013 04:00 -1,7 C 94 % 1000,5 hPa 0,0 l/m W-SW 0,00 h 0 W/m 10,1 km/h (2 Bft)
06.02.2013 05:00 -1,9 C 93 % 999,9 hPa 0,0 l/m W-SW 0,00 h 0 W/m 6,7 km/h (2 Bft)
06.02.2013 06:00 -2,3 C 92 % 999,0 hPa 0,0 l/m W-SW 0,00 h 0 W/m 2,8 km/h (1 Bft)
06.02.2013 07:00 -2,6 C 93 % 998,2 hPa 0,0 l/m W-SW 0,00 h 5 W/m 4,5 km/h (1 Bft)
06.02.2013 08:00 -2,1 C 95 % 997,8 hPa 0,0 l/m SW 0,00 h 22 W/m 8,4 km/h (2 Bft)
06.02.2013 09:00 -1,0 C 93 % 997,8 hPa 0,0 l/m SW 0,00 h 16 W/m 8,6 km/h (2 Bft)
06.02.2013 10:00 -0,5 C 90 % 997,5 hPa 0,0 l/m W-SW 0,00 h 35 W/m 12,1 km/h (2 Bft)
06.02.2013 11:00 0,1 C 87 % 997,5 hPa 0,0 l/m W-SW 0,00 h 46 W/m 20,8 km/h (4 Bft)
06.02.2013 12:00 0,0 C 90 % 997,2 hPa 0,0 l/m W-SW 0,00 h 56 W/m 17,6 km/h (3 Bft)
06.02.2013 13:00 -0,2 C 93 % 996,9 hPa 0,2 l/m SW 0,00 h 43 W/m 15,0 km/h (3 Bft)
06.02.2013 14:00 0,1 C 94 % 996,8 hPa 0,2 l/m SW 0,00 h 46 W/m 14,5 km/h (3 Bft)
06.02.2013 15:00 0,2 C 94 % 996,8 hPa 0,0 l/m SW 0,00 h 37 W/m 14,0 km/h (3 Bft)
06.02.2013 16:00 0,0 C 95 % 996,9 hPa 0,2 l/m SW 0,00 h 13 W/m 12,6 km/h (3 Bft)
06.02.2013 17:00 -0,2 C 95 % 997,4 hPa 0,2 l/m SW 0,00 h 8 W/m 10,7 km/h (2 Bft)
06.02.2013 18:00 -0,3 C 96 % 998,1 hPa 0,2 l/m SW 0,00 h 0 W/m 3,9 km/h (1 Bft)
06.02.2013 19:00 -0,3 C 96 % 998,7 hPa 0,2 l/m N 0,00 h 0 W/m 2,3 km/h (1 Bft)
06.02.2013 20:00 -0,2 C 96 % 999,3 hPa 0,6 l/m N 0,00 h 0 W/m 2,3 km/h (1 Bft)
06.02.2013 21:00 -0,2 C 97 % 1000,0 hPa 0,0 l/m N 0,00 h 0 W/m 1,6 km/h (1 Bft)
06.02.2013 22:00 -0,1 C 97 % 1000,7 hPa 0,6 l/m N 0,00 h 0 W/m 0,3 km/h (0 Bft)
06.02.2013 23:00 -0,1 C 97 % 1001,3 hPa 0,2 l/m SW 0,00 h 0 W/m 2,5 km/h (1 Bft)
07.02.2013 00:00 -0,0 C 97 % 1002,1 hPa 0,2 l/m N 0,00 h 0 W/m 2,0 km/h (1 Bft)
07.02.2013 01:00 -0,1 C 97 % 1002,8 hPa 0,0 l/m NW 0,00 h 0 W/m 6,1 km/h (2 Bft)
07.02.2013 02:00 -0,4 C 97 % 1003,5 hPa 0,2 l/m NW 0,00 h 0 W/m 5,1 km/h (1 Bft)
07.02.2013 03:00 -0,8 C 97 % 1004,2 hPa 0,0 l/m NW 0,00 h 0 W/m 6,3 km/h (2 Bft)
07.02.2013 04:00 -1,1 C 96 % 1004,8 hPa 0,0 l/m NW 0,00 h 0 W/m 6,4 km/h (2 Bft)
07.02.2013 05:00 -1,3 C 96 % 1005,7 hPa 0,2 l/m NW 0,00 h 0 W/m 8,6 km/h (2 Bft)
07.02.2013 06:00 -1,7 C 96 % 1006,6 hPa 0,2 l/m N-NW 0,00 h 0 W/m 10,2 km/h (2 Bft)
07.02.2013 07:00 -2,2 C 95 % 1007,6 hPa 0,0 l/m N-NW 0,00 h 0 W/m 5,3 km/h (1 Bft)
07.02.2013 08:00 -2,3 C 95 % 1008,4 hPa 0,0 l/m NW 0,00 h 11 W/m 5,3 km/h (1 Bft)
07.02.2013 09:00 -1,8 C 95 % 1009,3 hPa 0,0 l/m W-NW 0,00 h 35 W/m 8,6 km/h (2 Bft)
07.02.2013 10:00 -1,2 C 94 % 1010,1 hPa 0,0 l/m W 0,00 h 31 W/m 6,4 km/h (2 Bft)
07.02.2013 11:00 -0,7 C 93 % 1010,8 hPa 0,0 l/m W 0,00 h 47 W/m 8,4 km/h (2 Bft)
07.02.2013 12:00 -0,1 C 92 % 1010,9 hPa 0,0 l/m W 0,00 h 59 W/m 9,8 km/h (2 Bft)
07.02.2013 13:00 0,3 C 90 % 1011,0 hPa 0,0 l/m W 0,00 h 63 W/m 12,1 km/h (2 Bft)
07.02.2013 14:00 0,5 C 88 % 1010,8 hPa 0,0 l/m W 0,00 h 60 W/m 11,0 km/h (2 Bft)
07.02.2013 15:00 0,6 C 89 % 1011,1 hPa 0,0 l/m W-SW 0,00 h 63 W/m 12,4 km/h (3 Bft)
07.02.2013 16:00 -0,2 C 90 % 1011,1 hPa 0,0 l/m W-SW 0,00 h 18 W/m 14,6 km/h (3 Bft)
07.02.2013 17:00 -0,9 C 93 % 1011,4 hPa 0,2 l/m W-SW 0,00 h 5 W/m 13,8 km/h (3 Bft)
07.02.2013 18:00 -1,3 C 94 % 1011,4 hPa 0,0 l/m W-SW 0,00 h 0 W/m 14,0 km/h (3 Bft)
07.02.2013 19:00 -1,4 C 95 % 1011,6 hPa 0,0 l/m W-SW 0,00 h 0 W/m 12,9 km/h (3 Bft)
07.02.2013 20:00 -1,4 C 95 % 1011,7 hPa 0,0 l/m W 0,00 h 0 W/m 10,5 km/h (2 Bft)
07.02.2013 21:00 -1,5 C 95 % 1011,8 hPa 0,0 l/m W-SW 0,00 h 0 W/m 10,8 km/h (2 Bft)
07.02.2013 22:00 -1,6 C 95 % 1011,6 hPa 0,0 l/m W-SW 0,00 h 0 W/m 11,3 km/h (2 Bft)
07.02.2013 23:00 -1,6 C 96 % 1011,5 hPa 1,0 l/m W-SW 0,00 h 0 W/m 10,5 km/h (2 Bft)
08.02.2013 00:00 -1,7 C 96 % 1011,5 hPa 0,0 l/m W 0,00 h 0 W/m 10,1 km/h (2 Bft)
08.02.2013 01:00 -2,0 C 95 % 1011,3 hPa 0,0 l/m W 0,00 h 0 W/m 9,1 km/h (2 Bft)
08.02.2013 02:00 -2,5 C 95 % 1011,1 hPa 0,0 l/m SW 0,00 h 0 W/m 10,5 km/h (2 Bft)
08.02.2013 03:00 -2,4 C 95 % 1010,9 hPa 0,4 l/m SW 0,00 h 0 W/m 4,8 km/h (1 Bft)
08.02.2013 04:00 -2,2 C 96 % 1010,6 hPa 0,2 l/m W 0,00 h 0 W/m 4,7 km/h (1 Bft)
08.02.2013 05:00 -2,2 C 96 % 1010,6 hPa 0,0 l/m W-NW 0,00 h 0 W/m 6,0 km/h (2 Bft)
08.02.2013 06:00 -2,2 C 96 % 1010,7 hPa 0,0 l/m W-NW 0,00 h 0 W/m 6,3 km/h (2 Bft)
08.02.2013 07:00 -2,4 C 96 % 1011,0 hPa 0,0 l/m W-NW 0,00 h 5 W/m 6,7 km/h (2 Bft)
08.02.2013 08:00 -2,5 C 96 % 1011,5 hPa 0,2 l/m W-NW 0,00 h 17 W/m 3,7 km/h (1 Bft)
08.02.2013 09:00 -1,9 C 96 % 1011,9 hPa 0,0 l/m W-NW 0,00 h 57 W/m 6,5 km/h (2 Bft)
08.02.2013 10:00 -1,0 C 95 % 1012,1 hPa 0,0 l/m W-NW 0,42 h 179 W/m 6,3 km/h (2 Bft)
08.02.2013 11:00 0,3 C 91 % 1012,3 hPa 0,0 l/m W-NW 0,42 h 281 W/m 5,3 km/h (1 Bft)
08.02.2013 12:00 0,8 C 80 % 1012,1 hPa 0,0 l/m W-NW 0,75 h 389 W/m 7,9 km/h (2 Bft)
08.02.2013 13:00 0,5 C 77 % 1012,0 hPa 0,0 l/m N 0,00 h 156 W/m 4,3 km/h (1 Bft)
08.02.2013 14:00 0,2 C 83 % 1011,9 hPa 0,0 l/m W 0,33 h 187 W/m 6,9 km/h (2 Bft)
08.02.2013 15:00 -0,6 C 88 % 1012,1 hPa 0,0 l/m SW 0,08 h 102 W/m 10,2 km/h (2 Bft)
08.02.2013 16:00 -0,8 C 90 % 1012,3 hPa 0,0 l/m W-NW 0,33 h 68 W/m 6,0 km/h (2 Bft)
08.02.2013 17:00 -1,4 C 88 % 1012,6 hPa 0,0 l/m W-NW 0,33 h 17 W/m 7,1 km/h (2 Bft)
08.02.2013 18:00 -2,4 C 87 % 1013,1 hPa 0,0 l/m W-NW 0,00 h 0 W/m 5,6 km/h (1 Bft)
08.02.2013 19:00 -2,8 C 89 % 1013,4 hPa 0,0 l/m W-SW 0,00 h 0 W/m 6,7 km/h (2 Bft)
08.02.2013 20:00 -2,5 C 92 % 1013,4 hPa 0,0 l/m W-SW 0,00 h 0 W/m 10,5 km/h (2 Bft)
08.02.2013 21:00 -2,6 C 93 % 1013,5 hPa 0,0 l/m SW 0,00 h 0 W/m 12,1 km/h (2 Bft)
08.02.2013 22:00 -2,7 C 94 % 1013,5 hPa 0,0 l/m SW 0,00 h 0 W/m 10,6 km/h (2 Bft)
08.02.2013 23:00 -2,6 C 95 % 1013,5 hPa 0,2 l/m SW 0,00 h 0 W/m 11,0 km/h (2 Bft)
09.02.2013 00:00 -2,6 C 95 % 1013,6 hPa 0,2 l/m W 0,00 h 0 W/m 8,7 km/h (2 Bft)
09.02.2013 01:00 -2,8 C 94 % 1014,1 hPa 0,4 l/m NW 0,00 h 0 W/m 7,5 km/h (2 Bft)
09.02.2013 02:00 -3,2 C 94 % 1014,2 hPa 0,0 l/m N-NW 0,00 h 0 W/m 6,9 km/h (2 Bft)
09.02.2013 03:00 -3,8 C 94 % 1014,5 hPa 0,0 l/m NW 0,00 h 0 W/m 11,8 km/h (2 Bft)
09.02.2013 04:00 -4,4 C 91 % 1014,8 hPa 0,0 l/m N-NW 0,00 h 0 W/m 10,5 km/h (2 Bft)
09.02.2013 05:00 -4,8 C 90 % 1015,2 hPa 0,0 l/m N-NW 0,00 h 0 W/m 3,3 km/h (1 Bft)
09.02.2013 06:00 -5,5 C 90 % 1015,8 hPa 0,0 l/m N 0,00 h 0 W/m 0,8 km/h (0 Bft)
09.02.2013 07:00 -5,6 C 92 % 1016,3 hPa 0,0 l/m N 0,00 h 6 W/m 1,2 km/h (1 Bft)
09.02.2013 08:00 -5,5 C 93 % 1016,8 hPa 0,0 l/m W-NW 0,00 h 25 W/m 3,2 km/h (1 Bft)
09.02.2013 09:00 -4,4 C 94 % 1017,2 hPa 0,2 l/m W 0,00 h 46 W/m 4,5 km/h (1 Bft)
09.02.2013 10:00 -3,6 C 93 % 1017,5 hPa 0,0 l/m NW 0,33 h 172 W/m 5,6 km/h (1 Bft)
09.02.2013 11:00 -2,5 C 89 % 1017,9 hPa 0,0 l/m N-NW 0,75 h 347 W/m 7,0 km/h (2 Bft)
09.02.2013 12:00 -1,3 C 77 % 1017,9 hPa 0,0 l/m NW 0,75 h 417 W/m 7,6 km/h (2 Bft)
09.02.2013 13:00 -1,6 C 71 % 1017,6 hPa 0,0 l/m N 0,33 h 276 W/m 7,5 km/h (2 Bft)
09.02.2013 14:00 -2,0 C 75 % 1017,6 hPa 0,0 l/m N 0,33 h 209 W/m 4,7 km/h (1 Bft)
09.02.2013 15:00 -1,5 C 75 % 1017,5 hPa 0,0 l/m N 0,00 h 82 W/m 3,9 km/h (1 Bft)
09.02.2013 16:00 -2,4 C 77 % 1017,6 hPa 0,0 l/m N 0,42 h 63 W/m 1,1 km/h (0 Bft)
09.02.2013 17:00 -3,3 C 79 % 1017,8 hPa 0,0 l/m N 0,00 h 12 W/m 0,0 km/h (0 Bft)
09.02.2013 18:00 -4,8 C 83 % 1018,2 hPa 0,0 l/m N 0,00 h 0 W/m 0,1 km/h (0 Bft)
09.02.2013 19:00 -5,0 C 88 % 1018,3 hPa 0,0 l/m N 0,00 h 0 W/m 1,2 km/h (1 Bft)
09.02.2013 20:00 -5,1 C 89 % 1018,1 hPa 0,0 l/m N-NW 0,00 h 0 W/m 1,9 km/h (1 Bft)
09.02.2013 21:00 -5,3 C 90 % 1018,0 hPa 0,0 l/m N 0,00 h 0 W/m 0,0 km/h (0 Bft)
09.02.2013 22:00 -5,4 C 90 % 1017,8 hPa 0,0 l/m N 0,00 h 0 W/m 0,4 km/h (0 Bft)
09.02.2013 23:00 -5,9 C 90 % 1017,5 hPa 0,0 l/m N 0,00 h 0 W/m 0,8 km/h (0 Bft)
10.02.2013 00:00 -6,2 C 91 % 1017,3 hPa 0,0 l/m N 0,00 h 0 W/m 0,1 km/h (0 Bft)
10.02.2013 01:00 -6,6 C 91 % 1017,2 hPa 0,0 l/m N 0,00 h 0 W/m 0,0 km/h (0 Bft)
10.02.2013 02:00 -6,5 C 93 % 1017,3 hPa 0,0 l/m N 0,00 h 0 W/m 0,1 km/h (0 Bft)
10.02.2013 03:00 -6,1 C 93 % 1017,0 hPa 0,0 l/m N 0,00 h 0 W/m 0,3 km/h (0 Bft)
10.02.2013 04:00 -5,8 C 94 % 1016,7 hPa 0,0 l/m N 0,00 h 0 W/m 0,1 km/h (0 Bft)
10.02.2013 05:00 -5,6 C 94 % 1016,4 hPa 0,0 l/m W-NW 0,00 h 0 W/m 3,2 km/h (1 Bft)
10.02.2013 06:00 -5,7 C 94 % 1016,3 hPa 0,0 l/m W-SW 0,00 h 0 W/m 3,7 km/h (1 Bft)
10.02.2013 07:00 -6,8 C 91 % 1016,2 hPa 0,0 l/m N 0,00 h 9 W/m 0,9 km/h (0 Bft)
10.02.2013 08:00 -8,3 C 90 % 1016,2 hPa 0,0 l/m N 0,00 h 28 W/m 0,5 km/h (0 Bft)
10.02.2013 09:00 -8,2 C 91 % 1016,1 hPa 0,0 l/m W-SW 0,92 h 208 W/m 2,9 km/h (1 Bft)
10.02.2013 10:00 -7,1 C 90 % 1015,8 hPa 0,0 l/m W-SW 0,92 h 328 W/m 3,5 km/h (1 Bft)
10.02.2013 11:00 -5,2 C 83 % 1015,3 hPa 0,0 l/m S-SW 1,00 h 451 W/m 4,9 km/h (1 Bft)
10.02.2013 12:00 -3,8 C 71 % 1014,4 hPa 0,0 l/m S-SW 1,00 h 494 W/m 7,1 km/h (2 Bft)
10.02.2013 13:00 -2,6 C 68 % 1013,2 hPa 0,0 l/m SO 1,00 h 484 W/m 8,6 km/h (2 Bft)
10.02.2013 14:00 -1,9 C 63 % 1012,2 hPa 0,0 l/m O-SO 1,00 h 421 W/m 13,0 km/h (3 Bft)
10.02.2013 15:00 -1,9 C 64 % 1011,4 hPa 0,0 l/m SO 1,00 h 308 W/m 12,1 km/h (2 Bft)
10.02.2013 16:00 -2,3 C 67 % 1010,6 hPa 0,0 l/m O 0,33 h 89 W/m 10,5 km/h (2 Bft)
10.02.2013 17:00 -3,6 C 68 % 1010,0 hPa 0,0 l/m O 0,17 h 16 W/m 4,4 km/h (1 Bft)
10.02.2013 18:00 -4,8 C 73 % 1009,3 hPa 0,0 l/m N 0,00 h 0 W/m 1,7 km/h (1 Bft)
10.02.2013 19:00 -6,2 C 78 % 1008,6 hPa 0,0 l/m N 0,00 h 0 W/m 0,3 km/h (0 Bft)
10.02.2013 20:00 -7,3 C 82 % 1007,6 hPa 0,0 l/m N 0,00 h 0 W/m 1,1 km/h (0 Bft)
10.02.2013 21:00 -8,2 C 85 % 1006,9 hPa 0,0 l/m N 0,00 h 0 W/m 2,7 km/h (1 Bft)
10.02.2013 22:00 -8,9 C 86 % 1006,2 hPa 0,0 l/m O-NO 0,00 h 0 W/m 3,3 km/h (1 Bft)
10.02.2013 23:00 -9,7 C 88 % 1005,9 hPa 0,0 l/m O-NO 0,00 h 0 W/m 3,6 km/h (1 Bft)
Min-Datum _ 10.02.13 10.02.13 06.02.13 - - - - 05.02.13
_ Min-Zeit 23:55 14:40 13:35 - - - - 18:10
Minimum _ -10,1 C 62 % 996,7 hPa - - - - 0,0 km/h (0 Bft)
Max-Datum _ 05.02.13 09.02.13 09.02.13 05.02.13 - 05.02.13 09.02.13 05.02.13
_ Max-Zeit 12:10 03:30 18:50 17:05 - 10:15 13:05 13:40
Maximum _ 6,9 C 100 % 1018,4 hPa 1,8 l/m - 0,08 h 603 W/m 56,3 km/h
W (7 Bft)
Durchschnitt _ -1,2 C 91 % 1010,3 hPa #15,8 l/m W-SW #14:40 h 116 W/m 11,9 km/h (2 Bft)